sensor_id;sensor_type;location;lat;lon;timestamp;temperature;humidity
29849;DHT22;16728;50.832;5.590;2023-11-19T14:25:28;13.80;99.90
29849;DHT22;16728;50.832;5.590;2023-11-19T14:28:30;13.50;99.90
29849;DHT22;16728;50.832;5.590;2023-11-19T14:31:33;13.30;99.90
29849;DHT22;16728;50.832;5.590;2023-11-19T14:34:34;13.20;99.90
29849;DHT22;16728;50.832;5.590;2023-11-19T14:37:36;13.10;99.90
29849;DHT22;16728;50.832;5.590;2023-11-19T14:40:38;13.10;99.90
29849;DHT22;16728;50.832;5.590;2023-11-19T14:43:43;13.10;99.90
29849;DHT22;16728;50.832;5.590;2023-11-19T14:46:45;13.10;99.90
29849;DHT22;16728;50.832;5.590;2023-11-19T14:49:47;13.00;99.90
29849;DHT22;16728;50.832;5.590;2023-11-19T14:52:49;13.00;99.90
29849;DHT22;16728;50.832;5.590;2023-11-19T14:55:51;13.00;99.90
29849;DHT22;16728;50.832;5.590;2023-11-19T14:58:53;13.00;99.90
29849;DHT22;16728;50.832;5.590;2023-11-19T15:01:54;13.00;99.90
29849;DHT22;16728;50.832;5.590;2023-11-19T15:04:56;13.00;99.90
29849;DHT22;16728;50.832;5.590;2023-11-19T15:07:59;13.00;99.90
29849;DHT22;16728;50.832;5.590;2023-11-19T15:11:01;12.90;99.90
29849;DHT22;16728;50.832;5.590;2023-11-19T15:14:04;12.90;99.90
29849;DHT22;16728;50.832;5.590;2023-11-19T15:17:07;13.00;99.90
29849;DHT22;16728;50.832;5.590;2023-11-19T15:20:10;12.90;99.90
29849;DHT22;16728;50.832;5.590;2023-11-19T15:23:15;12.90;99.90
29849;DHT22;16728;50.832;5.590;2023-11-19T15:26:17;12.90;99.90
29849;DHT22;16728;50.832;5.590;2023-11-19T15:29:21;12.90;99.90
29849;DHT22;16728;50.832;5.590;2023-11-19T15:32:25;12.90;99.90
29849;DHT22;16728;50.832;5.590;2023-11-19T15:35:27;12.90;99.90
29849;DHT22;16728;50.832;5.590;2023-11-19T15:38:28;13.00;99.90
29849;DHT22;16728;50.832;5.590;2023-11-19T15:41:31;12.90;99.90
29849;DHT22;16728;50.832;5.590;2023-11-19T15:44:33;13.00;99.90
29849;DHT22;16728;50.832;5.590;2023-11-19T15:47:36;13.00;99.90
29849;DHT22;16728;50.832;5.590;2023-11-19T15:50:38;13.00;99.90
29849;DHT22;16728;50.832;5.590;2023-11-19T15:53:40;12.90;99.90
29849;DHT22;16728;50.832;5.590;2023-11-19T15:56:42;12.90;99.90
29849;DHT22;16728;50.832;5.590;2023-11-19T15:59:44;12.90;99.90
29849;DHT22;16728;50.832;5.590;2023-11-19T16:02:46;12.90;99.90
29849;DHT22;16728;50.832;5.590;2023-11-19T16:05:48;12.90;99.90
29849;DHT22;16728;50.832;5.590;2023-11-19T16:09:07;12.90;99.90
29849;DHT22;16728;50.832;5.590;2023-11-19T16:12:11;12.90;99.90
29849;DHT22;16728;50.832;5.590;2023-11-19T16:15:13;12.80;99.90
29849;DHT22;16728;50.832;5.590;2023-11-19T16:18:16;12.80;99.90
29849;DHT22;16728;50.832;5.590;2023-11-19T16:21:19;12.80;99.90
29849;DHT22;16728;50.832;5.590;2023-11-19T16:24:21;12.80;99.90
29849;DHT22;16728;50.832;5.590;2023-11-19T16:27:23;12.90;99.90
29849;DHT22;16728;50.832;5.590;2023-11-19T16:30:29;12.90;99.90
29849;DHT22;16728;50.832;5.590;2023-11-19T16:33:31;12.90;99.90
29849;DHT22;16728;50.832;5.590;2023-11-19T16:36:36;12.90;99.90
29849;DHT22;16728;50.832;5.590;2023-11-19T16:39:38;12.80;99.90
29849;DHT22;16728;50.832;5.590;2023-11-19T16:42:41;12.90;99.90
29849;DHT22;16728;50.832;5.590;2023-11-19T16:45:43;12.90;99.90
29849;DHT22;16728;50.832;5.590;2023-11-19T16:48:46;12.90;99.90
29849;DHT22;16728;50.832;5.590;2023-11-19T16:51:50;12.90;99.90
29849;DHT22;16728;50.832;5.590;2023-11-19T16:54:55;12.90;99.90
29849;DHT22;16728;50.832;5.590;2023-11-19T16:57:57;12.90;99.90
29849;DHT22;16728;50.832;5.590;2023-11-19T17:01:01;12.90;99.90
29849;DHT22;16728;50.832;5.590;2023-11-19T17:04:04;12.90;99.90
29849;DHT22;16728;50.832;5.590;2023-11-19T17:07:06;12.90;99.90
29849;DHT22;16728;50.832;5.590;2023-11-19T17:10:10;12.90;99.90
29849;DHT22;16728;50.832;5.590;2023-11-19T17:13:12;12.90;99.90
29849;DHT22;16728;50.832;5.590;2023-11-19T17:16:14;12.90;99.90
29849;DHT22;16728;50.832;5.590;2023-11-19T17:19:16;12.80;99.90
29849;DHT22;16728;50.832;5.590;2023-11-19T17:22:17;12.80;99.90
29849;DHT22;16728;50.832;5.590;2023-11-19T17:25:19;12.80;99.90
29849;DHT22;16728;50.832;5.590;2023-11-19T17:28:21;12.80;99.90
29849;DHT22;16728;50.832;5.590;2023-11-19T17:31:24;12.80;99.90
29849;DHT22;16728;50.832;5.590;2023-11-19T17:34:26;12.80;99.90
29849;DHT22;16728;50.832;5.590;2023-11-19T17:37:28;12.80;99.90
29849;DHT22;16728;50.832;5.590;2023-11-19T17:40:30;12.70;99.90
29849;DHT22;16728;50.832;5.590;2023-11-19T17:43:33;12.70;99.90
29849;DHT22;16728;50.832;5.590;2023-11-19T17:46:34;12.70;99.90
29849;DHT22;16728;50.832;5.590;2023-11-19T17:49:36;12.70;99.90
29849;DHT22;16728;50.832;5.590;2023-11-19T17:52:41;12.70;99.90
29849;DHT22;16728;50.832;5.590;2023-11-19T17:55:43;12.70;99.90
29849;DHT22;16728;50.832;5.590;2023-11-19T17:58:46;12.60;99.90
29849;DHT22;16728;50.832;5.590;2023-11-19T18:01:48;12.60;99.90
29849;DHT22;16728;50.832;5.590;2023-11-19T18:04:50;12.50;99.90
29849;DHT22;16728;50.832;5.590;2023-11-19T18:07:52;12.60;99.90
29849;DHT22;16728;50.832;5.590;2023-11-19T18:10:54;12.50;99.90
29849;DHT22;16728;50.832;5.590;2023-11-19T18:13:56;12.50;99.90
29849;DHT22;16728;50.832;5.590;2023-11-19T18:16:59;12.50;99.90
29849;DHT22;16728;50.832;5.590;2023-11-19T18:20:01;12.40;99.90
29849;DHT22;16728;50.832;5.590;2023-11-19T18:23:04;12.40;99.90
29849;DHT22;16728;50.832;5.590;2023-11-19T18:26:06;12.40;99.90
29849;DHT22;16728;50.832;5.590;2023-11-19T18:29:08;12.40;99.90
29849;DHT22;16728;50.832;5.590;2023-11-19T18:32:10;12.40;99.90
29849;DHT22;16728;50.832;5.590;2023-11-19T18:35:14;12.40;99.90
29849;DHT22;16728;50.832;5.590;2023-11-19T18:38:21;12.40;99.90
29849;DHT22;16728;50.832;5.590;2023-11-19T18:41:43;12.30;99.90
29849;DHT22;16728;50.832;5.590;2023-11-19T18:44:44;12.30;99.90
29849;DHT22;16728;50.832;5.590;2023-11-19T18:47:46;12.30;99.90
29849;DHT22;16728;50.832;5.590;2023-11-19T18:50:50;12.30;99.90
29849;DHT22;16728;50.832;5.590;2023-11-19T18:53:53;12.30;99.90
29849;DHT22;16728;50.832;5.590;2023-11-19T18:56:54;12.30;99.90
29849;DHT22;16728;50.832;5.590;2023-11-19T18:59:58;12.20;99.90
29849;DHT22;16728;50.832;5.590;2023-11-19T19:03:00;12.30;99.90
29849;DHT22;16728;50.832;5.590;2023-11-19T19:06:05;12.20;99.90
29849;DHT22;16728;50.832;5.590;2023-11-19T19:09:07;12.20;99.90
29849;DHT22;16728;50.832;5.590;2023-11-19T19:12:09;12.20;99.90
29849;DHT22;16728;50.832;5.590;2023-11-19T19:15:12;12.20;99.90
29849;DHT22;16728;50.832;5.590;2023-11-19T19:18:17;12.20;99.90
29849;DHT22;16728;50.832;5.590;2023-11-19T19:21:19;12.20;99.90
29849;DHT22;16728;50.832;5.590;2023-11-19T19:24:22;12.20;99.90
29849;DHT22;16728;50.832;5.590;2023-11-19T19:27:24;12.20;99.90
29849;DHT22;16728;50.832;5.590;2023-11-19T19:30:26;12.20;99.90
29849;DHT22;16728;50.832;5.590;2023-11-19T19:33:28;12.30;99.90
29849;DHT22;16728;50.832;5.590;2023-11-19T19:36:30;12.30;99.90
29849;DHT22;16728;50.832;5.590;2023-11-19T19:39:34;12.30;99.90
29849;DHT22;16728;50.832;5.590;2023-11-19T19:42:36;12.30;99.90
29849;DHT22;16728;50.832;5.590;2023-11-19T19:45:37;12.30;99.90
29849;DHT22;16728;50.832;5.590;2023-11-19T19:48:39;12.30;99.90
29849;DHT22;16728;50.832;5.590;2023-11-19T19:51:43;12.30;99.90
29849;DHT22;16728;50.832;5.590;2023-11-19T19:54:44;12.30;99.90
29849;DHT22;16728;50.832;5.590;2023-11-19T19:57:47;12.30;99.90
29849;DHT22;16728;50.832;5.590;2023-11-19T20:00:49;12.30;99.90
29849;DHT22;16728;50.832;5.590;2023-11-19T20:03:51;12.30;99.90
29849;DHT22;16728;50.832;5.590;2023-11-19T20:06:53;12.30;99.90
29849;DHT22;16728;50.832;5.590;2023-11-19T20:09:55;12.30;99.90
29849;DHT22;16728;50.832;5.590;2023-11-19T20:12:57;12.30;99.90
29849;DHT22;16728;50.832;5.590;2023-11-19T20:15:58;12.30;99.90
29849;DHT22;16728;50.832;5.590;2023-11-19T20:19:00;12.30;99.90
29849;DHT22;16728;50.832;5.590;2023-11-19T20:22:02;12.30;99.90
29849;DHT22;16728;50.832;5.590;2023-11-19T20:25:04;12.30;99.90
29849;DHT22;16728;50.832;5.590;2023-11-19T20:28:07;12.30;99.90
29849;DHT22;16728;50.832;5.590;2023-11-19T20:31:09;12.30;99.90
29849;DHT22;16728;50.832;5.590;2023-11-19T20:34:11;12.30;99.90
29849;DHT22;16728;50.832;5.590;2023-11-19T20:37:13;12.30;99.90
29849;DHT22;16728;50.832;5.590;2023-11-19T20:40:15;12.30;99.90
29849;DHT22;16728;50.832;5.590;2023-11-19T20:43:17;12.30;99.90
29849;DHT22;16728;50.832;5.590;2023-11-19T20:46:19;12.30;99.90
29849;DHT22;16728;50.832;5.590;2023-11-19T20:49:21;12.30;99.90
29849;DHT22;16728;50.832;5.590;2023-11-19T20:52:23;12.30;99.90
29849;DHT22;16728;50.832;5.590;2023-11-19T20:55:25;12.30;99.90
29849;DHT22;16728;50.832;5.590;2023-11-19T20:58:27;12.20;99.90
29849;DHT22;16728;50.832;5.590;2023-11-19T21:01:29;12.20;99.90
29849;DHT22;16728;50.832;5.590;2023-11-19T21:04:31;12.20;99.90
29849;DHT22;16728;50.832;5.590;2023-11-19T21:07:33;12.20;99.90
29849;DHT22;16728;50.832;5.590;2023-11-19T21:10:35;12.10;99.90
29849;DHT22;16728;50.832;5.590;2023-11-19T21:13:37;12.10;99.90
29849;DHT22;16728;50.832;5.590;2023-11-19T21:16:38;12.10;99.90
29849;DHT22;16728;50.832;5.590;2023-11-19T21:19:41;12.10;99.90
29849;DHT22;16728;50.832;5.590;2023-11-19T21:22:46;12.10;99.90
29849;DHT22;16728;50.832;5.590;2023-11-19T21:25:49;12.10;99.90
29849;DHT22;16728;50.832;5.590;2023-11-19T21:28:50;12.10;99.90
29849;DHT22;16728;50.832;5.590;2023-11-19T21:31:52;12.00;99.90
29849;DHT22;16728;50.832;5.590;2023-11-19T21:34:56;12.00;99.90
29849;DHT22;16728;50.832;5.590;2023-11-19T21:37:58;12.00;99.90
29849;DHT22;16728;50.832;5.590;2023-11-19T21:41:00;12.10;99.90
29849;DHT22;16728;50.832;5.590;2023-11-19T21:44:02;12.10;99.90
29849;DHT22;16728;50.832;5.590;2023-11-19T21:47:04;12.10;99.90
29849;DHT22;16728;50.832;5.590;2023-11-19T21:50:06;12.10;99.90
29849;DHT22;16728;50.832;5.590;2023-11-19T21:53:08;12.00;99.90
29849;DHT22;16728;50.832;5.590;2023-11-19T21:56:11;12.00;99.90
29849;DHT22;16728;50.832;5.590;2023-11-19T21:59:13;12.00;99.90
29849;DHT22;16728;50.832;5.590;2023-11-19T22:02:16;12.00;99.90
29849;DHT22;16728;50.832;5.590;2023-11-19T22:05:18;11.90;99.90
29849;DHT22;16728;50.832;5.590;2023-11-19T22:08:23;11.90;99.90
29849;DHT22;16728;50.832;5.590;2023-11-19T22:11:25;11.90;99.90
29849;DHT22;16728;50.832;5.590;2023-11-19T22:14:29;11.90;99.90
29849;DHT22;16728;50.832;5.590;2023-11-19T22:17:31;11.90;99.90
29849;DHT22;16728;50.832;5.590;2023-11-19T22:20:33;11.90;99.90
29849;DHT22;16728;50.832;5.590;2023-11-19T22:23:37;12.00;99.90
29849;DHT22;16728;50.832;5.590;2023-11-19T22:26:39;11.90;99.90
29849;DHT22;16728;50.832;5.590;2023-11-19T22:29:41;12.00;99.90
29849;DHT22;16728;50.832;5.590;2023-11-19T22:32:42;12.00;99.90
29849;DHT22;16728;50.832;5.590;2023-11-19T22:35:44;12.00;99.90
29849;DHT22;16728;50.832;5.590;2023-11-19T22:38:46;12.00;99.90
29849;DHT22;16728;50.832;5.590;2023-11-19T22:41:48;12.00;99.90
29849;DHT22;16728;50.832;5.590;2023-11-19T22:44:50;11.90;99.90
29849;DHT22;16728;50.832;5.590;2023-11-19T22:47:52;11.80;99.90
29849;DHT22;16728;50.832;5.590;2023-11-19T22:50:54;11.80;99.90
29849;DHT22;16728;50.832;5.590;2023-11-19T22:53:57;11.80;99.90
29849;DHT22;16728;50.832;5.590;2023-11-19T22:56:59;11.70;99.90
29849;DHT22;16728;50.832;5.590;2023-11-19T23:00:02;11.70;99.90
29849;DHT22;16728;50.832;5.590;2023-11-19T23:03:05;11.70;99.90
29849;DHT22;16728;50.832;5.590;2023-11-19T23:06:09;11.70;99.90
29849;DHT22;16728;50.832;5.590;2023-11-19T23:09:11;11.70;99.90
29849;DHT22;16728;50.832;5.590;2023-11-19T23:12:13;11.60;99.90
29849;DHT22;16728;50.832;5.590;2023-11-19T23:15:18;11.70;99.90
29849;DHT22;16728;50.832;5.590;2023-11-19T23:18:19;11.60;99.90
29849;DHT22;16728;50.832;5.590;2023-11-19T23:21:23;11.60;99.90
29849;DHT22;16728;50.832;5.590;2023-11-19T23:24:25;11.70;99.90
29849;DHT22;16728;50.832;5.590;2023-11-19T23:27:27;11.70;99.90
29849;DHT22;16728;50.832;5.590;2023-11-19T23:30:29;11.70;99.90
29849;DHT22;16728;50.832;5.590;2023-11-19T23:33:32;11.70;99.90
29849;DHT22;16728;50.832;5.590;2023-11-19T23:36:34;11.70;99.90
29849;DHT22;16728;50.832;5.590;2023-11-19T23:39:35;11.80;99.90
29849;DHT22;16728;50.832;5.590;2023-11-19T23:42:37;11.80;99.90
29849;DHT22;16728;50.832;5.590;2023-11-19T23:45:39;11.90;99.90
29849;DHT22;16728;50.832;5.590;2023-11-19T23:48:42;11.90;99.90
29849;DHT22;16728;50.832;5.590;2023-11-19T23:51:46;11.90;99.90
29849;DHT22;16728;50.832;5.590;2023-11-19T23:54:48;11.90;99.90
29849;DHT22;16728;50.832;5.590;2023-11-19T23:57:50;11.90;99.90
